CJS weather

Abraham González International Airport
Ciudad Juárez, Chihushua, Mexico

Public forecast

Using degrees Celsius for public forecast. Weather courtesy of forecast.io.

Current aviation weather report (METAR) for Abraham González International Airport

Retrieved 2019/10/19 14:41 UTC (0 seconds ago):

MMCS 191441Z 16004KT 10SM SKC 14/02 A3004 RMK SLP094 52017 940

Aviation forecast (TAF) for Abraham González International Airport

Forecast is more than 6 hours old.

Retrieved 2019/10/19 06:00 UTC (8 hours ago):

TAF MMCS 190554Z 1906/2006 30015KT P6SM SKC FM191800 35010KT P6SM SCT040 SCT090 BECMG 2003/2005 26005KT SKC